Aviation Digital Data Service (ADDS)

Output produced by METARs form (1700 UTC 17 October 2017)
found at http://aviationweather.gov/adds/metars/
 
KJAX 171315Z 1713/1812 01010G15KT P6SM VCSH SCT015 BKN025 
     FM171600 03015G25KT P6SM SCT015 BKN025 
     FM180000 02010G15KT P6SM SCT025 BKN040